CA-0355 weather

CLOSED St. Anthony Airport
Newfoundland and Labrador, Canada

Public forecast

Using degrees Celsius for public forecast. Weather courtesy of forecast.io.

METAR (pilot weather report)

Closest report is St. Anthony Airport, 11.4 nm (21.1 km) WSW. Retrieved 2019/09/17 17:10 UTC (47 minutes ago):

CYAY 171710Z AUTO 34018G34KT 9SM -RA FEW026 SCT031 OVC055 08/04 A2985 RMK SLP109

TAF (pilot weather forecast)

Closest forecast is St. Anthony Airport, 11.4 nm (21.1 km) WSW. Retrieved 2019/09/17 14:42 UTC (3 hours ago):

TAF TAF CYAY 171340Z 1714/1802 34022G35KT P6SM OVC025 TEMPO 1714/1720 P6SM -SHRA OVC015 FM172000 36018G30KT 4SM -SHRA BR BKN008 OVC015 PROB40 1720/1802 BKN007 RMK FCST BASED ON AUTO OBS. NXT FCST BY 172000Z